Takuyo — 7JWN — position and weather

sailwx.info

Track history (hours):
 
Tides and Currents Weather Stations Pressure Air Temp Water Temp Dewpoint Dewpoint Depression Visibility Wind Speed Wind Dir Waves Ship Positions

Oceanographic research ship Takuyo (Japan)

Detailed information on ship capabilities available from University of Delaware's Ocean Information Center.

Last reported at 2017-Apr-29 05:09 UTC. Time now 2017-Apr-29 05:49 UTC.
Position N 30°56' E 128°40'.

Length 96 m; draft 4.7 m.

Type: Other ship. MMSI: 431561000.

Date/timePositionNaut miles runAvg speedWind from/ knotsBaromVisibWave heightAir tempDewpointWater temp
2017-Apr-29 05:09N 30°56' E 128°40'1 1.5
2017-Apr-29 04:40N 30°55' E 128°40'2 7.4
2017-Apr-29 04:26N 30°55' E 128°38'3 7.2
2017-Apr-29 03:59N 30°55' E 128°34'2 4.4
2017-Apr-29 03:30N 30°55' E 128°32'3 6.7
2017-Apr-29 03:00N 30°55' E 128°36'3 6.1
2017-Apr-29 02:30N 30°55' E 128°39'5 4.0
2017-Apr-29 01:13N 30°55' E 128°33'2 8.4
2017-Apr-29 01:00N 30°55' E 128°31'9 7.4
2017-Apr-28 23:48N 30°56' E 128°42'3 8.8
2017-Apr-28 23:30N 30°57' E 128°39'  
2017-Apr-19 12:54N 35°01' E 139°34'614.1
2017-Apr-19 12:31N 35°04' E 139°40'713.9
2017-Apr-19 12:00N 35°09' E 139°45'510.9
2017-Apr-19 11:30N 35°15' E 139°46'4 8.7
2017-Apr-19 11:00N 35°19' E 139°43'611.6
2017-Apr-19 10:30N 35°24' E 139°43'713.5
2017-Apr-19 10:00N 35°28' E 139°50'611.1
2017-Apr-19 09:30N 35°33' E 139°53'0 0.1
2017-Apr-19 08:51N 35°33' E 139°53'0 0.0
2017-Apr-19 08:30N 35°33' E 139°53'0 0.0
2017-Apr-19 07:58N 35°33' E 139°53'0 0.0
2017-Apr-19 07:29N 35°33' E 139°53'0 0.0
2017-Apr-19 06:56N 35°33' E 139°53'0 0.0
2017-Apr-19 06:30N 35°33' E 139°53'0 0.2
2017-Apr-19 06:00N 35°33' E 139°53'0 0.1
2017-Apr-19 05:30N 35°33' E 139°53'  
Track history (hours):
 
Tides and Currents Weather Stations Pressure Air Temp Water Temp Dewpoint Dewpoint Depression Visibility Wind Speed Wind Dir Waves Ship Positions

Oceanographic research ship Takuyo (Japan)

Detailed information on ship capabilities available from University of Delaware's Ocean Information Center.

Last reported at 2017-Apr-29 05:09 UTC. Time now 2017-Apr-29 05:49 UTC.
Position N 30°56' E 128°40'.

Length 96 m; draft 4.7 m.

Type: Other ship. MMSI: 431561000.

Date/timePositionNaut miles runAvg speedWind from/ knotsBaromVisibWave heightAir tempDewpointWater temp
2017-Apr-29 05:09N 30°56' E 128°40'1 1.5
2017-Apr-29 04:40N 30°55' E 128°40'2 7.4
2017-Apr-29 04:26N 30°55' E 128°38'3 7.2
2017-Apr-29 03:59N 30°55' E 128°34'2 4.4
2017-Apr-29 03:30N 30°55' E 128°32'3 6.7
2017-Apr-29 03:00N 30°55' E 128°36'3 6.1
2017-Apr-29 02:30N 30°55' E 128°39'5 4.0
2017-Apr-29 01:13N 30°55' E 128°33'2 8.4
2017-Apr-29 01:00N 30°55' E 128°31'9 7.4
2017-Apr-28 23:48N 30°56' E 128°42'3 8.8
2017-Apr-28 23:30N 30°57' E 128°39'  
2017-Apr-19 12:54N 35°01' E 139°34'614.1
2017-Apr-19 12:31N 35°04' E 139°40'713.9
2017-Apr-19 12:00N 35°09' E 139°45'510.9
2017-Apr-19 11:30N 35°15' E 139°46'4 8.7
2017-Apr-19 11:00N 35°19' E 139°43'611.6
2017-Apr-19 10:30N 35°24' E 139°43'713.5
2017-Apr-19 10:00N 35°28' E 139°50'611.1
2017-Apr-19 09:30N 35°33' E 139°53'0 0.1
2017-Apr-19 08:51N 35°33' E 139°53'0 0.0
2017-Apr-19 08:30N 35°33' E 139°53'0 0.0
2017-Apr-19 07:58N 35°33' E 139°53'0 0.0
2017-Apr-19 07:29N 35°33' E 139°53'0 0.0
2017-Apr-19 06:56N 35°33' E 139°53'0 0.0
2017-Apr-19 06:30N 35°33' E 139°53'0 0.2
2017-Apr-19 06:00N 35°33' E 139°53'0 0.1
2017-Apr-19 05:30N 35°33' E 139°53'  

Dump ship's entire track history